sensor_id;sensor_type;location;lat;lon;timestamp;temperature;humidity
23691;DHT22;43867;50.836;4.364;2022-07-04T00:01:24;17.20;99.90
23691;DHT22;43867;50.836;4.364;2022-07-04T00:03:51;17.10;99.90
23691;DHT22;43867;50.836;4.364;2022-07-04T00:06:16;17.10;99.90
23691;DHT22;43867;50.836;4.364;2022-07-04T00:08:42;17.00;99.90
23691;DHT22;43867;50.836;4.364;2022-07-04T00:11:07;17.00;99.90
23691;DHT22;43867;50.836;4.364;2022-07-04T00:13:33;17.10;99.90
23691;DHT22;43867;50.836;4.364;2022-07-04T00:15:58;17.10;99.90
23691;DHT22;43867;50.836;4.364;2022-07-04T00:18:25;17.10;99.90
23691;DHT22;43867;50.836;4.364;2022-07-04T00:20:51;17.00;99.90
23691;DHT22;43867;50.836;4.364;2022-07-04T00:23:18;17.00;99.90
23691;DHT22;43867;50.836;4.364;2022-07-04T00:25:43;16.90;99.90
23691;DHT22;43867;50.836;4.364;2022-07-04T00:28:09;16.80;99.90
23691;DHT22;43867;50.836;4.364;2022-07-04T00:30:35;16.60;99.90
23691;DHT22;43867;50.836;4.364;2022-07-04T00:33:00;16.60;99.90
23691;DHT22;43867;50.836;4.364;2022-07-04T00:35:26;16.50;99.90
23691;DHT22;43867;50.836;4.364;2022-07-04T00:37:51;16.50;99.90
23691;DHT22;43867;50.836;4.364;2022-07-04T00:40:17;16.40;99.90
23691;DHT22;43867;50.836;4.364;2022-07-04T00:42:43;16.40;99.90
23691;DHT22;43867;50.836;4.364;2022-07-04T00:45:08;16.40;99.90
23691;DHT22;43867;50.836;4.364;2022-07-04T00:47:35;16.30;99.90
23691;DHT22;43867;50.836;4.364;2022-07-04T00:50:02;16.20;99.90
23691;DHT22;43867;50.836;4.364;2022-07-04T00:52:28;16.20;99.90
23691;DHT22;43867;50.836;4.364;2022-07-04T00:54:53;16.10;99.90
23691;DHT22;43867;50.836;4.364;2022-07-04T00:57:20;16.10;99.90
23691;DHT22;43867;50.836;4.364;2022-07-04T00:59:45;16.10;99.90
23691;DHT22;43867;50.836;4.364;2022-07-04T01:02:12;16.10;99.90
23691;DHT22;43867;50.836;4.364;2022-07-04T01:04:38;16.00;99.90
23691;DHT22;43867;50.836;4.364;2022-07-04T01:07:04;16.10;99.90
23691;DHT22;43867;50.836;4.364;2022-07-04T01:09:31;16.00;99.90
23691;DHT22;43867;50.836;4.364;2022-07-04T01:11:58;16.00;99.90
23691;DHT22;43867;50.836;4.364;2022-07-04T01:14:23;16.00;99.90
23691;DHT22;43867;50.836;4.364;2022-07-04T01:16:49;15.90;99.90
23691;DHT22;43867;50.836;4.364;2022-07-04T01:19:14;15.90;99.90
23691;DHT22;43867;50.836;4.364;2022-07-04T01:21:40;15.90;99.90
23691;DHT22;43867;50.836;4.364;2022-07-04T01:24:07;15.80;99.90
23691;DHT22;43867;50.836;4.364;2022-07-04T01:26:35;15.70;99.90
23691;DHT22;43867;50.836;4.364;2022-07-04T01:29:01;15.80;99.90
23691;DHT22;43867;50.836;4.364;2022-07-04T01:31:26;15.70;99.90
23691;DHT22;43867;50.836;4.364;2022-07-04T01:33:52;15.70;99.90
23691;DHT22;43867;50.836;4.364;2022-07-04T01:36:18;15.70;99.90
23691;DHT22;43867;50.836;4.364;2022-07-04T01:38:44;15.60;99.90
23691;DHT22;43867;50.836;4.364;2022-07-04T01:41:10;15.60;99.90
23691;DHT22;43867;50.836;4.364;2022-07-04T01:43:36;15.70;99.90
23691;DHT22;43867;50.836;4.364;2022-07-04T01:46:04;15.70;99.90
23691;DHT22;43867;50.836;4.364;2022-07-04T01:48:31;15.70;99.90
23691;DHT22;43867;50.836;4.364;2022-07-04T01:50:56;15.70;99.90
23691;DHT22;43867;50.836;4.364;2022-07-04T01:53:22;15.70;99.90
23691;DHT22;43867;50.836;4.364;2022-07-04T01:55:48;15.70;99.90
23691;DHT22;43867;50.836;4.364;2022-07-04T01:58:15;15.60;99.90
23691;DHT22;43867;50.836;4.364;2022-07-04T02:00:41;15.60;99.90
23691;DHT22;43867;50.836;4.364;2022-07-04T02:03:26;15.60;99.90
23691;DHT22;43867;50.836;4.364;2022-07-04T02:05:51;15.60;99.90
23691;DHT22;43867;50.836;4.364;2022-07-04T02:08:19;15.60;99.90
23691;DHT22;43867;50.836;4.364;2022-07-04T02:10:46;15.60;99.90
23691;DHT22;43867;50.836;4.364;2022-07-04T02:13:12;15.50;99.90
23691;DHT22;43867;50.836;4.364;2022-07-04T02:15:39;15.50;99.90
23691;DHT22;43867;50.836;4.364;2022-07-04T02:18:08;15.50;99.90
23691;DHT22;43867;50.836;4.364;2022-07-04T02:20:34;15.40;99.90
23691;DHT22;43867;50.836;4.364;2022-07-04T02:23:00;15.40;99.90
23691;DHT22;43867;50.836;4.364;2022-07-04T02:25:27;15.20;99.90
23691;DHT22;43867;50.836;4.364;2022-07-04T02:27:52;15.20;99.90
23691;DHT22;43867;50.836;4.364;2022-07-04T02:30:19;15.20;99.90
23691;DHT22;43867;50.836;4.364;2022-07-04T02:32:44;15.10;99.90
23691;DHT22;43867;50.836;4.364;2022-07-04T02:35:11;15.10;99.90
23691;DHT22;43867;50.836;4.364;2022-07-04T02:37:36;15.10;99.90
23691;DHT22;43867;50.836;4.364;2022-07-04T02:40:03;15.10;99.90
23691;DHT22;43867;50.836;4.364;2022-07-04T02:42:32;15.10;99.90
23691;DHT22;43867;50.836;4.364;2022-07-04T02:44:58;15.00;99.90
23691;DHT22;43867;50.836;4.364;2022-07-04T02:47:24;15.00;99.90
23691;DHT22;43867;50.836;4.364;2022-07-04T02:49:50;14.90;99.90
23691;DHT22;43867;50.836;4.364;2022-07-04T02:52:15;14.90;99.90
23691;DHT22;43867;50.836;4.364;2022-07-04T02:54:44;14.90;99.90
23691;DHT22;43867;50.836;4.364;2022-07-04T02:57:11;14.80;99.90
23691;DHT22;43867;50.836;4.364;2022-07-04T02:59:39;14.80;99.90
23691;DHT22;43867;50.836;4.364;2022-07-04T03:02:05;14.70;99.90
23691;DHT22;43867;50.836;4.364;2022-07-04T03:04:30;14.60;99.90
23691;DHT22;43867;50.836;4.364;2022-07-04T03:06:56;14.60;99.90
23691;DHT22;43867;50.836;4.364;2022-07-04T03:09:21;14.50;99.90
23691;DHT22;43867;50.836;4.364;2022-07-04T03:11:47;14.50;99.90
23691;DHT22;43867;50.836;4.364;2022-07-04T03:14:14;14.60;99.90
23691;DHT22;43867;50.836;4.364;2022-07-04T03:16:40;14.60;99.90
23691;DHT22;43867;50.836;4.364;2022-07-04T03:19:06;14.60;99.90
23691;DHT22;43867;50.836;4.364;2022-07-04T03:21:32;14.60;99.90
23691;DHT22;43867;50.836;4.364;2022-07-04T03:23:58;14.70;99.90
23691;DHT22;43867;50.836;4.364;2022-07-04T03:26:27;14.70;99.90
23691;DHT22;43867;50.836;4.364;2022-07-04T03:28:56;14.70;99.90
23691;DHT22;43867;50.836;4.364;2022-07-04T03:31:22;14.70;99.90
23691;DHT22;43867;50.836;4.364;2022-07-04T03:33:47;14.70;99.90
23691;DHT22;43867;50.836;4.364;2022-07-04T03:36:13;14.80;99.90
23691;DHT22;43867;50.836;4.364;2022-07-04T03:38:39;14.70;99.90
23691;DHT22;43867;50.836;4.364;2022-07-04T03:41:04;14.70;99.90
23691;DHT22;43867;50.836;4.364;2022-07-04T03:43:30;14.70;99.90
23691;DHT22;43867;50.836;4.364;2022-07-04T03:45:55;14.80;99.90
23691;DHT22;43867;50.836;4.364;2022-07-04T03:48:21;14.80;99.90
23691;DHT22;43867;50.836;4.364;2022-07-04T03:50:46;14.80;99.90
23691;DHT22;43867;50.836;4.364;2022-07-04T03:53:12;14.80;99.90
23691;DHT22;43867;50.836;4.364;2022-07-04T03:55:38;14.80;99.90
23691;DHT22;43867;50.836;4.364;2022-07-04T03:58:04;14.80;99.90
23691;DHT22;43867;50.836;4.364;2022-07-04T04:00:30;14.80;99.90
23691;DHT22;43867;50.836;4.364;2022-07-04T04:02:56;14.80;99.90
23691;DHT22;43867;50.836;4.364;2022-07-04T04:05:22;14.80;99.90
23691;DHT22;43867;50.836;4.364;2022-07-04T04:07:59;14.90;99.90
23691;DHT22;43867;50.836;4.364;2022-07-04T04:10:26;14.90;99.90
23691;DHT22;43867;50.836;4.364;2022-07-04T04:12:52;14.90;99.90
23691;DHT22;43867;50.836;4.364;2022-07-04T04:15:17;14.90;99.90
23691;DHT22;43867;50.836;4.364;2022-07-04T04:17:43;14.90;99.90
23691;DHT22;43867;50.836;4.364;2022-07-04T04:20:09;14.90;99.90
23691;DHT22;43867;50.836;4.364;2022-07-04T04:22:34;14.90;99.90
23691;DHT22;43867;50.836;4.364;2022-07-04T04:25:00;14.80;99.90
23691;DHT22;43867;50.836;4.364;2022-07-04T04:27:26;14.80;99.90
23691;DHT22;43867;50.836;4.364;2022-07-04T04:29:51;14.70;99.90
23691;DHT22;43867;50.836;4.364;2022-07-04T04:32:17;14.80;99.90
23691;DHT22;43867;50.836;4.364;2022-07-04T04:34:43;14.70;99.90
23691;DHT22;43867;50.836;4.364;2022-07-04T04:37:09;14.70;99.90
23691;DHT22;43867;50.836;4.364;2022-07-04T04:39:37;14.70;99.90
23691;DHT22;43867;50.836;4.364;2022-07-04T04:42:02;14.60;99.90
23691;DHT22;43867;50.836;4.364;2022-07-04T04:44:28;14.60;99.90
23691;DHT22;43867;50.836;4.364;2022-07-04T04:46:54;14.70;99.90
23691;DHT22;43867;50.836;4.364;2022-07-04T04:49:19;14.80;99.90
23691;DHT22;43867;50.836;4.364;2022-07-04T04:51:45;14.80;99.90
23691;DHT22;43867;50.836;4.364;2022-07-04T04:54:10;14.80;99.90
23691;DHT22;43867;50.836;4.364;2022-07-04T04:56:36;14.80;99.90
23691;DHT22;43867;50.836;4.364;2022-07-04T04:59:01;14.80;99.90
23691;DHT22;43867;50.836;4.364;2022-07-04T05:01:27;14.80;99.90
23691;DHT22;43867;50.836;4.364;2022-07-04T05:03:53;15.00;99.90
23691;DHT22;43867;50.836;4.364;2022-07-04T05:06:18;15.00;99.90
23691;DHT22;43867;50.836;4.364;2022-07-04T05:08:44;15.10;99.90
23691;DHT22;43867;50.836;4.364;2022-07-04T05:11:10;15.10;99.90
23691;DHT22;43867;50.836;4.364;2022-07-04T05:13:35;15.10;99.90
23691;DHT22;43867;50.836;4.364;2022-07-04T05:16:01;15.10;99.90
23691;DHT22;43867;50.836;4.364;2022-07-04T05:18:27;15.10;99.90
23691;DHT22;43867;50.836;4.364;2022-07-04T05:20:52;15.20;99.90
23691;DHT22;43867;50.836;4.364;2022-07-04T05:23:18;15.40;99.90
23691;DHT22;43867;50.836;4.364;2022-07-04T05:25:43;15.60;99.90
23691;DHT22;43867;50.836;4.364;2022-07-04T05:28:09;15.80;99.90
23691;DHT22;43867;50.836;4.364;2022-07-04T05:30:35;16.00;99.90
23691;DHT22;43867;50.836;4.364;2022-07-04T05:33:00;16.10;99.90
23691;DHT22;43867;50.836;4.364;2022-07-04T05:35:27;16.20;99.90
23691;DHT22;43867;50.836;4.364;2022-07-04T05:37:53;16.50;99.90
23691;DHT22;43867;50.836;4.364;2022-07-04T05:40:18;16.80;99.90
23691;DHT22;43867;50.836;4.364;2022-07-04T05:42:46;16.90;99.90
23691;DHT22;43867;50.836;4.364;2022-07-04T05:45:12;17.10;99.90
23691;DHT22;43867;50.836;4.364;2022-07-04T05:47:37;17.20;99.90
23691;DHT22;43867;50.836;4.364;2022-07-04T05:50:03;17.50;99.90
23691;DHT22;43867;50.836;4.364;2022-07-04T05:52:29;17.70;99.90
23691;DHT22;43867;50.836;4.364;2022-07-04T05:54:54;18.00;99.90
23691;DHT22;43867;50.836;4.364;2022-07-04T05:57:20;18.30;99.90
23691;DHT22;43867;50.836;4.364;2022-07-04T05:59:46;18.50;99.90
23691;DHT22;43867;50.836;4.364;2022-07-04T06:02:11;18.90;99.90
23691;DHT22;43867;50.836;4.364;2022-07-04T06:04:37;18.90;99.90
23691;DHT22;43867;50.836;4.364;2022-07-04T06:07:02;19.20;99.90
23691;DHT22;43867;50.836;4.364;2022-07-04T06:09:28;19.60;99.90
23691;DHT22;43867;50.836;4.364;2022-07-04T06:11:54;19.70;99.90
23691;DHT22;43867;50.836;4.364;2022-07-04T06:14:19;19.40;99.90
23691;DHT22;43867;50.836;4.364;2022-07-04T06:16:45;19.40;99.90
23691;DHT22;43867;50.836;4.364;2022-07-04T06:19:10;19.70;99.90
23691;DHT22;43867;50.836;4.364;2022-07-04T06:21:37;20.00;99.90
23691;DHT22;43867;50.836;4.364;2022-07-04T06:24:03;20.00;99.90
23691;DHT22;43867;50.836;4.364;2022-07-04T06:26:28;20.10;99.90
23691;DHT22;43867;50.836;4.364;2022-07-04T06:28:55;20.30;99.90
23691;DHT22;43867;50.836;4.364;2022-07-04T06:31:21;20.40;99.90
23691;DHT22;43867;50.836;4.364;2022-07-04T06:33:47;20.40;99.90
23691;DHT22;43867;50.836;4.364;2022-07-04T06:36:31;21.10;99.90
23691;DHT22;43867;50.836;4.364;2022-07-04T06:38:57;21.50;99.60
23691;DHT22;43867;50.836;4.364;2022-07-04T06:41:24;21.50;98.90
23691;DHT22;43867;50.836;4.364;2022-07-04T06:43:51;21.30;98.70
23691;DHT22;43867;50.836;4.364;2022-07-04T06:46:16;21.90;98.40
23691;DHT22;43867;50.836;4.364;2022-07-04T06:48:42;22.30;97.90
23691;DHT22;43867;50.836;4.364;2022-07-04T06:51:09;22.40;96.80
23691;DHT22;43867;50.836;4.364;2022-07-04T06:53:35;23.00;96.80
23691;DHT22;43867;50.836;4.364;2022-07-04T06:56:00;22.80;94.90
23691;DHT22;43867;50.836;4.364;2022-07-04T06:58:26;22.40;95.60
23691;DHT22;43867;50.836;4.364;2022-07-04T07:00:55;22.50;94.90
23691;DHT22;43867;50.836;4.364;2022-07-04T07:03:21;22.60;95.00
23691;DHT22;43867;50.836;4.364;2022-07-04T07:05:46;22.50;94.30
23691;DHT22;43867;50.836;4.364;2022-07-04T07:08:12;22.60;94.20
23691;DHT22;43867;50.836;4.364;2022-07-04T07:10:38;22.60;93.60
23691;DHT22;43867;50.836;4.364;2022-07-04T07:13:03;22.30;92.30
23691;DHT22;43867;50.836;4.364;2022-07-04T07:15:30;22.60;92.90
23691;DHT22;43867;50.836;4.364;2022-07-04T07:18:01;22.90;91.90
23691;DHT22;43867;50.836;4.364;2022-07-04T07:20:27;23.20;90.10
23691;DHT22;43867;50.836;4.364;2022-07-04T07:22:53;23.50;86.30
23691;DHT22;43867;50.836;4.364;2022-07-04T07:25:19;23.00;87.60
23691;DHT22;43867;50.836;4.364;2022-07-04T07:27:44;22.50;89.40
23691;DHT22;43867;50.836;4.364;2022-07-04T07:30:10;22.70;90.00
23691;DHT22;43867;50.836;4.364;2022-07-04T07:32:37;23.10;90.20
23691;DHT22;43867;50.836;4.364;2022-07-04T07:35:02;23.00;90.10
23691;DHT22;43867;50.836;4.364;2022-07-04T07:37:30;23.00;90.10
23691;DHT22;43867;50.836;4.364;2022-07-04T07:39:56;23.20;91.30
23691;DHT22;43867;50.836;4.364;2022-07-04T07:42:26;23.50;90.40
23691;DHT22;43867;50.836;4.364;2022-07-04T07:47:21;23.90;88.20
23691;DHT22;43867;50.836;4.364;2022-07-04T07:49:47;23.60;85.10
23691;DHT22;43867;50.836;4.364;2022-07-04T07:52:13;24.00;83.00
23691;DHT22;43867;50.836;4.364;2022-07-04T07:54:39;24.30;82.00
23691;DHT22;43867;50.836;4.364;2022-07-04T07:57:05;24.40;77.60
23691;DHT22;43867;50.836;4.364;2022-07-04T07:59:30;24.40;76.20
23691;DHT22;43867;50.836;4.364;2022-07-04T08:01:56;24.30;78.00
23691;DHT22;43867;50.836;4.364;2022-07-04T08:04:22;24.40;76.60
23691;DHT22;43867;50.836;4.364;2022-07-04T08:07:00;24.00;76.60
23691;DHT22;43867;50.836;4.364;2022-07-04T08:09:26;24.20;75.40
23691;DHT22;43867;50.836;4.364;2022-07-04T08:11:51;24.30;76.10
23691;DHT22;43867;50.836;4.364;2022-07-04T08:14:17;24.40;75.80
23691;DHT22;43867;50.836;4.364;2022-07-04T08:16:42;24.40;74.80
23691;DHT22;43867;50.836;4.364;2022-07-04T08:19:08;24.60;73.20
23691;DHT22;43867;50.836;4.364;2022-07-04T08:21:34;24.40;72.90
23691;DHT22;43867;50.836;4.364;2022-07-04T08:24:02;24.20;72.00
23691;DHT22;43867;50.836;4.364;2022-07-04T08:26:28;24.20;72.70
23691;DHT22;43867;50.836;4.364;2022-07-04T08:28:55;24.40;76.00
23691;DHT22;43867;50.836;4.364;2022-07-04T08:31:26;24.20;73.20
23691;DHT22;43867;50.836;4.364;2022-07-04T08:33:53;24.60;72.90
23691;DHT22;43867;50.836;4.364;2022-07-04T08:36:19;24.80;68.70
23691;DHT22;43867;50.836;4.364;2022-07-04T08:38:45;25.00;66.70
23691;DHT22;43867;50.836;4.364;2022-07-04T08:41:11;25.00;68.40
23691;DHT22;43867;50.836;4.364;2022-07-04T08:43:38;25.00;68.30
23691;DHT22;43867;50.836;4.364;2022-07-04T08:46:04;25.10;69.00
23691;DHT22;43867;50.836;4.364;2022-07-04T08:48:31;25.40;65.00
23691;DHT22;43867;50.836;4.364;2022-07-04T08:50:59;25.30;65.20
23691;DHT22;43867;50.836;4.364;2022-07-04T08:53:29;24.80;65.50
23691;DHT22;43867;50.836;4.364;2022-07-04T08:55:56;24.70;66.50
23691;DHT22;43867;50.836;4.364;2022-07-04T08:58:41;25.00;65.50
23691;DHT22;43867;50.836;4.364;2022-07-04T09:01:08;25.60;66.10
23691;DHT22;43867;50.836;4.364;2022-07-04T09:03:43;25.70;63.80
23691;DHT22;43867;50.836;4.364;2022-07-04T09:06:10;25.80;64.10
23691;DHT22;43867;50.836;4.364;2022-07-04T09:08:36;25.60;62.00
23691;DHT22;43867;50.836;4.364;2022-07-04T09:11:04;26.10;64.80
23691;DHT22;43867;50.836;4.364;2022-07-04T09:13:30;26.40;62.70
23691;DHT22;43867;50.836;4.364;2022-07-04T09:15:56;26.30;61.00
23691;DHT22;43867;50.836;4.364;2022-07-04T09:20:48;26.00;62.20
23691;DHT22;43867;50.836;4.364;2022-07-04T09:23:18;26.40;62.40
23691;DHT22;43867;50.836;4.364;2022-07-04T09:25:44;26.00;61.40
23691;DHT22;43867;50.836;4.364;2022-07-04T09:28:09;26.00;62.00
23691;DHT22;43867;50.836;4.364;2022-07-04T09:30:45;25.80;63.10
23691;DHT22;43867;50.836;4.364;2022-07-04T09:33:11;25.90;61.20
23691;DHT22;43867;50.836;4.364;2022-07-04T09:35:37;26.10;62.30
23691;DHT22;43867;50.836;4.364;2022-07-04T09:38:03;26.20;61.50
23691;DHT22;43867;50.836;4.364;2022-07-04T09:40:31;25.90;63.60
23691;DHT22;43867;50.836;4.364;2022-07-04T09:42:58;25.70;61.20
23691;DHT22;43867;50.836;4.364;2022-07-04T09:45:24;25.70;61.70
23691;DHT22;43867;50.836;4.364;2022-07-04T09:47:54;25.50;64.10
23691;DHT22;43867;50.836;4.364;2022-07-04T09:50:23;25.30;63.20
23691;DHT22;43867;50.836;4.364;2022-07-04T09:57:46;26.00;63.40
23691;DHT22;43867;50.836;4.364;2022-07-04T10:00:16;26.00;61.20
23691;DHT22;43867;50.836;4.364;2022-07-04T10:02:43;26.10;59.50
23691;DHT22;43867;50.836;4.364;2022-07-04T10:05:09;26.40;59.60
23691;DHT22;43867;50.836;4.364;2022-07-04T10:07:38;26.80;55.90
23691;DHT22;43867;50.836;4.364;2022-07-04T10:10:23;26.60;57.30
23691;DHT22;43867;50.836;4.364;2022-07-04T10:12:53;26.20;56.50
23691;DHT22;43867;50.836;4.364;2022-07-04T10:15:19;25.80;57.50
23691;DHT22;43867;50.836;4.364;2022-07-04T10:17:44;26.00;59.40
23691;DHT22;43867;50.836;4.364;2022-07-04T10:20:11;26.10;58.90
23691;DHT22;43867;50.836;4.364;2022-07-04T10:22:37;26.10;59.10
23691;DHT22;43867;50.836;4.364;2022-07-04T10:25:05;26.00;58.40
23691;DHT22;43867;50.836;4.364;2022-07-04T10:27:31;26.30;56.20
23691;DHT22;43867;50.836;4.364;2022-07-04T10:29:59;26.30;55.10
23691;DHT22;43867;50.836;4.364;2022-07-04T10:32:25;26.40;57.60
23691;DHT22;43867;50.836;4.364;2022-07-04T10:34:53;26.20;58.40
23691;DHT22;43867;50.836;4.364;2022-07-04T10:37:19;26.30;57.70
23691;DHT22;43867;50.836;4.364;2022-07-04T10:39:47;26.30;58.80
23691;DHT22;43867;50.836;4.364;2022-07-04T10:42:22;26.50;58.60
23691;DHT22;43867;50.836;4.364;2022-07-04T10:44:49;26.10;57.80
23691;DHT22;43867;50.836;4.364;2022-07-04T10:47:21;25.60;58.50
23691;DHT22;43867;50.836;4.364;2022-07-04T10:49:50;25.60;57.90
23691;DHT22;43867;50.836;4.364;2022-07-04T10:52:18;25.40;59.00
23691;DHT22;43867;50.836;4.364;2022-07-04T10:54:45;25.50;58.50
23691;DHT22;43867;50.836;4.364;2022-07-04T10:57:11;25.40;59.80
23691;DHT22;43867;50.836;4.364;2022-07-04T10:59:38;25.50;58.30
23691;DHT22;43867;50.836;4.364;2022-07-04T11:07:14;26.30;55.50
23691;DHT22;43867;50.836;4.364;2022-07-04T11:09:41;26.00;56.50
23691;DHT22;43867;50.836;4.364;2022-07-04T11:12:13;26.00;57.20
23691;DHT22;43867;50.836;4.364;2022-07-04T11:14:42;26.00;59.00
23691;DHT22;43867;50.836;4.364;2022-07-04T11:19:37;26.00;59.30
23691;DHT22;43867;50.836;4.364;2022-07-04T11:22:04;26.00;60.50
23691;DHT22;43867;50.836;4.364;2022-07-04T11:24:30;25.90;60.20
23691;DHT22;43867;50.836;4.364;2022-07-04T11:26:57;26.10;60.00
23691;DHT22;43867;50.836;4.364;2022-07-04T11:29:28;26.00;58.90
23691;DHT22;43867;50.836;4.364;2022-07-04T11:31:57;25.60;59.30
23691;DHT22;43867;50.836;4.364;2022-07-04T11:34:22;25.40;58.90
23691;DHT22;43867;50.836;4.364;2022-07-04T11:36:49;25.20;59.50
23691;DHT22;43867;50.836;4.364;2022-07-04T11:39:19;25.00;59.60
23691;DHT22;43867;50.836;4.364;2022-07-04T11:41:47;25.10;60.10
23691;DHT22;43867;50.836;4.364;2022-07-04T11:44:35;25.20;61.00
23691;DHT22;43867;50.836;4.364;2022-07-04T11:47:20;25.40;60.60
23691;DHT22;43867;50.836;4.364;2022-07-04T11:52:16;25.50;58.90
23691;DHT22;43867;50.836;4.364;2022-07-04T11:54:45;25.40;59.80
23691;DHT22;43867;50.836;4.364;2022-07-04T11:57:25;25.20;60.30
23691;DHT22;43867;50.836;4.364;2022-07-04T11:59:52;25.20;58.40
23691;DHT22;43867;50.836;4.364;2022-07-04T12:02:17;25.20;58.40
23691;DHT22;43867;50.836;4.364;2022-07-04T12:04:43;25.10;58.50
23691;DHT22;43867;50.836;4.364;2022-07-04T12:07:09;25.10;59.60
23691;DHT22;43867;50.836;4.364;2022-07-04T12:09:37;25.20;58.00
23691;DHT22;43867;50.836;4.364;2022-07-04T12:12:03;25.40;57.50
23691;DHT22;43867;50.836;4.364;2022-07-04T12:14:29;25.20;58.70
23691;DHT22;43867;50.836;4.364;2022-07-04T12:19:53;25.50;58.70
23691;DHT22;43867;50.836;4.364;2022-07-04T12:22:33;25.20;59.30
23691;DHT22;43867;50.836;4.364;2022-07-04T12:24:59;25.30;59.40
23691;DHT22;43867;50.836;4.364;2022-07-04T12:27:25;25.00;59.30
23691;DHT22;43867;50.836;4.364;2022-07-04T12:29:51;25.10;59.50
23691;DHT22;43867;50.836;4.364;2022-07-04T12:32:17;25.00;61.20
23691;DHT22;43867;50.836;4.364;2022-07-04T12:34:43;25.20;60.10
23691;DHT22;43867;50.836;4.364;2022-07-04T12:37:09;25.40;58.90
23691;DHT22;43867;50.836;4.364;2022-07-04T12:39:36;25.40;58.40
23691;DHT22;43867;50.836;4.364;2022-07-04T12:42:06;25.40;59.00
23691;DHT22;43867;50.836;4.364;2022-07-04T12:44:33;25.00;58.80
23691;DHT22;43867;50.836;4.364;2022-07-04T12:46:59;24.80;58.80
23691;DHT22;43867;50.836;4.364;2022-07-04T12:49:25;24.80;60.00
23691;DHT22;43867;50.836;4.364;2022-07-04T12:51:52;24.90;59.80
23691;DHT22;43867;50.836;4.364;2022-07-04T12:54:29;25.00;58.40
23691;DHT22;43867;50.836;4.364;2022-07-04T12:57:02;24.90;57.40
23691;DHT22;43867;50.836;4.364;2022-07-04T12:59:28;24.90;58.00
23691;DHT22;43867;50.836;4.364;2022-07-04T13:01:53;25.00;57.60
23691;DHT22;43867;50.836;4.364;2022-07-04T13:04:19;25.10;56.50
23691;DHT22;43867;50.836;4.364;2022-07-04T13:06:46;25.00;56.80
23691;DHT22;43867;50.836;4.364;2022-07-04T13:09:12;24.90;56.70
23691;DHT22;43867;50.836;4.364;2022-07-04T13:11:38;24.60;57.20
23691;DHT22;43867;50.836;4.364;2022-07-04T13:14:23;24.80;56.50
23691;DHT22;43867;50.836;4.364;2022-07-04T13:16:48;24.90;57.40
23691;DHT22;43867;50.836;4.364;2022-07-04T13:19:14;24.90;58.00
23691;DHT22;43867;50.836;4.364;2022-07-04T13:21:42;24.80;57.40
23691;DHT22;43867;50.836;4.364;2022-07-04T13:24:08;25.10;57.80
23691;DHT22;43867;50.836;4.364;2022-07-04T13:26:33;25.00;55.80
23691;DHT22;43867;50.836;4.364;2022-07-04T13:28:59;24.80;55.60
23691;DHT22;43867;50.836;4.364;2022-07-04T13:31:27;24.90;56.20
23691;DHT22;43867;50.836;4.364;2022-07-04T13:33:55;25.00;55.40
23691;DHT22;43867;50.836;4.364;2022-07-04T13:36:21;25.00;56.70
23691;DHT22;43867;50.836;4.364;2022-07-04T13:38:47;25.00;56.40
23691;DHT22;43867;50.836;4.364;2022-07-04T13:41:13;25.10;56.90
23691;DHT22;43867;50.836;4.364;2022-07-04T13:43:38;25.20;56.40
23691;DHT22;43867;50.836;4.364;2022-07-04T13:46:04;25.40;56.10
23691;DHT22;43867;50.836;4.364;2022-07-04T13:48:30;25.60;56.30
23691;DHT22;43867;50.836;4.364;2022-07-04T13:50:55;25.50;56.40
23691;DHT22;43867;50.836;4.364;2022-07-04T13:53:21;25.40;57.00
23691;DHT22;43867;50.836;4.364;2022-07-04T13:55:46;25.60;56.00
23691;DHT22;43867;50.836;4.364;2022-07-04T13:58:12;25.60;56.10
23691;DHT22;43867;50.836;4.364;2022-07-04T14:00:38;25.70;56.00
23691;DHT22;43867;50.836;4.364;2022-07-04T14:03:06;25.80;55.90
23691;DHT22;43867;50.836;4.364;2022-07-04T14:05:31;26.10;54.80
23691;DHT22;43867;50.836;4.364;2022-07-04T14:07:57;25.90;54.70
23691;DHT22;43867;50.836;4.364;2022-07-04T14:10:23;25.70;55.10
23691;DHT22;43867;50.836;4.364;2022-07-04T14:12:49;25.70;55.60
23691;DHT22;43867;50.836;4.364;2022-07-04T14:15:14;25.90;56.10
23691;DHT22;43867;50.836;4.364;2022-07-04T14:17:40;26.10;56.50
23691;DHT22;43867;50.836;4.364;2022-07-04T14:20:06;26.00;56.50
23691;DHT22;43867;50.836;4.364;2022-07-04T14:22:33;25.80;56.90
23691;DHT22;43867;50.836;4.364;2022-07-04T14:24:59;25.60;56.40
23691;DHT22;43867;50.836;4.364;2022-07-04T14:27:24;25.40;57.10
23691;DHT22;43867;50.836;4.364;2022-07-04T14:29:50;25.60;56.50
23691;DHT22;43867;50.836;4.364;2022-07-04T14:32:16;25.60;56.00
23691;DHT22;43867;50.836;4.364;2022-07-04T14:34:43;25.70;55.90
23691;DHT22;43867;50.836;4.364;2022-07-04T14:37:09;25.60;55.60
23691;DHT22;43867;50.836;4.364;2022-07-04T14:39:37;25.30;55.50
23691;DHT22;43867;50.836;4.364;2022-07-04T14:42:03;25.20;56.30
23691;DHT22;43867;50.836;4.364;2022-07-04T14:44:29;25.30;56.70
23691;DHT22;43867;50.836;4.364;2022-07-04T14:46:55;25.30;57.30
23691;DHT22;43867;50.836;4.364;2022-07-04T14:49:21;25.40;56.70
23691;DHT22;43867;50.836;4.364;2022-07-04T14:51:46;25.50;56.90
23691;DHT22;43867;50.836;4.364;2022-07-04T14:54:12;25.40;56.40
23691;DHT22;43867;50.836;4.364;2022-07-04T14:56:37;25.50;56.80
23691;DHT22;43867;50.836;4.364;2022-07-04T14:59:03;25.40;56.40
23691;DHT22;43867;50.836;4.364;2022-07-04T15:01:30;25.50;56.30
23691;DHT22;43867;50.836;4.364;2022-07-04T15:03:56;25.60;56.30
23691;DHT22;43867;50.836;4.364;2022-07-04T15:06:22;25.50;55.80
23691;DHT22;43867;50.836;4.364;2022-07-04T15:08:47;25.50;55.90
23691;DHT22;43867;50.836;4.364;2022-07-04T15:11:13;25.40;56.20
23691;DHT22;43867;50.836;4.364;2022-07-04T15:13:38;25.40;56.40
23691;DHT22;43867;50.836;4.364;2022-07-04T15:16:05;25.60;56.70
23691;DHT22;43867;50.836;4.364;2022-07-04T15:18:31;25.70;55.90
23691;DHT22;43867;50.836;4.364;2022-07-04T15:20:57;25.80;56.10
23691;DHT22;43867;50.836;4.364;2022-07-04T15:23:41;25.80;55.80
23691;DHT22;43867;50.836;4.364;2022-07-04T15:26:25;25.90;55.00
23691;DHT22;43867;50.836;4.364;2022-07-04T15:28:51;25.80;55.80
23691;DHT22;43867;50.836;4.364;2022-07-04T15:31:17;25.70;55.50
23691;DHT22;43867;50.836;4.364;2022-07-04T15:33:42;25.50;56.10
23691;DHT22;43867;50.836;4.364;2022-07-04T15:36:08;25.30;56.20
23691;DHT22;43867;50.836;4.364;2022-07-04T15:38:34;25.30;56.70
23691;DHT22;43867;50.836;4.364;2022-07-04T15:40:59;25.50;56.80
23691;DHT22;43867;50.836;4.364;2022-07-04T15:43:26;25.20;56.60
23691;DHT22;43867;50.836;4.364;2022-07-04T15:45:52;25.20;56.80
23691;DHT22;43867;50.836;4.364;2022-07-04T15:48:18;25.20;56.70
23691;DHT22;43867;50.836;4.364;2022-07-04T15:50:43;25.20;57.60